createdAt,value
2023-09-12T00:00:57.174Z,24.07
2023-09-12T00:03:23.761Z,24.02
2023-09-12T00:05:57.337Z,24.04
2023-09-12T00:08:23.839Z,24.05
2023-09-12T00:11:27.559Z,24.03
2023-09-12T00:13:54.354Z,24.02
2023-09-12T00:16:20.982Z,24.01
2023-09-12T00:18:47.391Z,24.03
2023-09-12T00:21:13.825Z,24.03
2023-09-12T00:23:40.221Z,24.03
2023-09-12T00:26:06.592Z,24.03
2023-09-12T00:28:34.639Z,24.03
2023-09-12T00:31:01.005Z,24.03
2023-09-12T00:33:27.496Z,24.02
2023-09-12T00:35:54.150Z,24.01
2023-09-12T00:38:20.561Z,23.99
2023-09-12T00:40:46.934Z,24.00
2023-09-12T00:43:13.304Z,24.00
2023-09-12T00:45:39.816Z,24.00
2023-09-12T00:48:06.349Z,23.98
2023-09-12T00:50:32.907Z,23.99
2023-09-12T00:52:59.275Z,23.98
2023-09-12T00:55:25.867Z,23.95
2023-09-12T00:57:52.290Z,23.97
2023-09-12T01:00:18.750Z,23.96
2023-09-12T01:02:45.627Z,23.96
2023-09-12T01:05:12.155Z,23.95
2023-09-12T01:07:38.593Z,23.96
2023-09-12T01:10:08.142Z,23.93
2023-09-12T01:12:34.663Z,23.91
2023-09-12T01:15:01.294Z,23.90
2023-09-12T01:17:27.883Z,23.90
2023-09-12T01:19:54.259Z,23.90
2023-09-12T01:22:20.560Z,23.89
2023-09-12T01:25:05.999Z,23.91
2023-09-12T01:27:35.862Z,23.90
2023-09-12T01:30:04.711Z,23.90
2023-09-12T01:32:31.339Z,23.90
2023-09-12T01:34:57.731Z,23.89
2023-09-12T01:37:24.198Z,23.87
2023-09-12T01:39:50.577Z,23.87
2023-09-12T01:42:18.454Z,23.87
2023-09-12T01:44:45.267Z,23.86
2023-09-12T01:47:11.827Z,23.84
2023-09-12T01:49:38.927Z,23.85
2023-09-12T01:52:05.345Z,23.84
2023-09-12T01:54:31.745Z,23.86
2023-09-12T01:56:58.895Z,23.84
2023-09-12T01:59:25.763Z,23.84
2023-09-12T02:01:52.326Z,23.82
2023-09-12T02:04:18.694Z,23.83
2023-09-12T02:06:45.061Z,23.81
2023-09-12T02:09:11.450Z,23.80
2023-09-12T02:11:37.859Z,23.79
2023-09-12T02:14:04.327Z,23.80
2023-09-12T02:16:31.943Z,23.78
2023-09-12T02:18:58.437Z,23.81
2023-09-12T02:21:24.879Z,23.80
2023-09-12T02:23:51.279Z,23.79
2023-09-12T02:26:17.637Z,23.77
2023-09-12T02:28:44.329Z,23.75
2023-09-12T02:31:12.168Z,23.79
2023-09-12T02:33:39.258Z,23.80
2023-09-12T02:36:06.161Z,23.78
2023-09-12T02:38:32.902Z,23.77
2023-09-12T02:40:59.349Z,23.80
2023-09-12T02:43:25.730Z,23.80
2023-09-12T02:45:52.226Z,23.80
2023-09-12T02:48:18.671Z,23.82
2023-09-12T02:50:45.779Z,23.75
2023-09-12T02:53:12.168Z,23.75
2023-09-12T02:55:42.499Z,23.77
2023-09-12T02:58:08.875Z,23.75
2023-09-12T03:00:38.824Z,23.73
2023-09-12T03:03:05.353Z,23.73
2023-09-12T03:05:31.878Z,23.72
2023-09-12T03:07:58.259Z,23.69
2023-09-12T03:10:24.633Z,23.69
2023-09-12T03:12:51.028Z,23.65
2023-09-12T03:15:17.463Z,23.65
2023-09-12T03:17:43.870Z,23.63
2023-09-12T03:20:10.606Z,23.63
2023-09-12T03:22:38.780Z,23.58
2023-09-12T03:25:05.568Z,23.59
2023-09-12T03:27:32.107Z,23.62
2023-09-12T03:29:58.580Z,23.58
2023-09-12T03:32:25.035Z,23.59
2023-09-12T03:34:51.457Z,23.60
2023-09-12T03:37:17.808Z,23.57
2023-09-12T03:39:44.237Z,23.57
2023-09-12T03:42:10.631Z,23.63
2023-09-12T03:44:37.032Z,23.63
2023-09-12T03:47:03.428Z,23.65
2023-09-12T03:49:29.855Z,23.63
2023-09-12T03:51:56.596Z,23.62
2023-09-12T03:54:23.002Z,23.65
2023-09-12T03:56:49.423Z,23.64
2023-09-12T03:59:15.791Z,23.64
2023-09-12T04:01:42.253Z,23.61
2023-09-12T04:04:08.773Z,23.58
2023-09-12T04:06:35.295Z,23.61
2023-09-12T04:09:01.711Z,23.59
2023-09-12T04:11:39.565Z,23.59
2023-09-12T04:14:12.400Z,23.60
2023-09-12T04:16:38.914Z,23.60
2023-09-12T04:19:05.411Z,23.58
2023-09-12T04:21:31.860Z,23.58
2023-09-12T04:23:58.242Z,23.58
2023-09-12T04:26:24.623Z,23.60
2023-09-12T04:28:51.335Z,23.56
2023-09-12T04:31:17.739Z,23.56
2023-09-12T04:33:44.166Z,23.55
2023-09-12T04:36:10.648Z,23.54
2023-09-12T04:38:38.364Z,23.53
2023-09-12T04:41:06.871Z,23.48
2023-09-12T04:43:33.264Z,23.52
2023-09-12T04:45:59.723Z,23.51
2023-09-12T04:48:26.250Z,23.53
2023-09-12T04:50:52.643Z,23.53
2023-09-12T04:53:19.027Z,23.50
2023-09-12T04:55:45.415Z,23.50
2023-09-12T04:58:11.783Z,23.49
2023-09-12T05:00:39.930Z,23.43
2023-09-12T05:03:06.376Z,23.40
2023-09-12T05:05:34.956Z,23.40
2023-09-12T05:08:01.341Z,23.43
2023-09-12T05:10:27.693Z,23.44
2023-09-12T05:12:54.245Z,23.43
2023-09-12T05:15:20.766Z,23.44
2023-09-12T05:17:47.210Z,23.44
2023-09-12T05:20:13.589Z,23.44
2023-09-12T05:22:39.956Z,23.45
2023-09-12T05:25:06.461Z,23.47
2023-09-12T05:27:32.914Z,23.44
2023-09-12T05:29:59.295Z,23.45
2023-09-12T05:32:25.783Z,23.45
2023-09-12T05:34:58.048Z,23.43
2023-09-12T05:37:29.908Z,23.42
2023-09-12T05:39:56.279Z,23.42
2023-09-12T05:42:23.493Z,23.40
2023-09-12T05:44:50.757Z,23.40
2023-09-12T05:47:17.167Z,23.38
2023-09-12T05:49:43.539Z,23.41
2023-09-12T05:52:09.964Z,23.40
2023-09-12T05:54:36.413Z,23.40
2023-09-12T05:57:03.487Z,23.41
2023-09-12T05:59:30.976Z,23.37
2023-09-12T06:01:57.361Z,23.38
2023-09-12T06:04:24.217Z,23.36
2023-09-12T06:06:50.695Z,23.35
2023-09-12T06:09:17.081Z,23.37
2023-09-12T06:11:43.476Z,23.38
2023-09-12T06:14:09.839Z,23.37
2023-09-12T06:16:36.272Z,23.38
2023-09-12T06:19:02.683Z,23.39
2023-09-12T06:21:29.120Z,23.39
2023-09-12T06:24:14.590Z,23.41
2023-09-12T06:26:41.078Z,23.42
2023-09-12T06:29:07.509Z,23.43
2023-09-12T06:31:33.924Z,23.49
2023-09-12T06:34:00.319Z,23.46
2023-09-12T06:36:26.872Z,23.46
2023-09-12T06:38:53.265Z,23.47
2023-09-12T06:41:20.505Z,23.49
2023-09-12T06:43:46.893Z,23.52
2023-09-12T06:46:13.289Z,23.65
2023-09-12T06:48:39.716Z,23.86
2023-09-12T06:51:11.303Z,23.89
2023-09-12T06:53:40.376Z,23.28
2023-09-12T06:56:06.958Z,23.13
2023-09-12T06:58:33.506Z,23.09
2023-09-12T07:01:04.176Z,23.26
2023-09-12T07:03:31.158Z,23.43
2023-09-12T07:05:57.647Z,23.52
2023-09-12T07:08:24.021Z,23.43
2023-09-12T07:10:50.387Z,23.25
2023-09-12T07:13:16.762Z,23.41
2023-09-12T07:15:43.243Z,23.39
2023-09-12T07:18:09.725Z,23.40
2023-09-12T07:20:36.197Z,23.46
2023-09-12T07:23:02.576Z,23.40
2023-09-12T07:25:28.930Z,23.45
2023-09-12T07:27:55.300Z,23.36
2023-09-12T07:30:21.741Z,23.35
2023-09-12T07:32:48.224Z,23.43
2023-09-12T07:35:14.643Z,23.31
2023-09-12T07:37:41.160Z,23.34
2023-09-12T07:40:10.819Z,23.47
2023-09-12T07:42:37.396Z,23.44
2023-09-12T07:45:04.564Z,23.52
2023-09-12T07:47:30.941Z,23.61
2023-09-12T07:49:57.309Z,23.69
2023-09-12T07:52:23.828Z,23.72
2023-09-12T07:54:50.491Z,23.72
2023-09-12T07:57:16.934Z,23.73
2023-09-12T07:59:43.735Z,23.69
2023-09-12T08:02:13.696Z,23.71
2023-09-12T08:04:40.202Z,23.74
2023-09-12T08:07:06.759Z,23.73
2023-09-12T08:09:49.164Z,23.73
2023-09-12T08:12:15.540Z,23.82
2023-09-12T08:14:42.239Z,23.87
2023-09-12T08:17:09.987Z,23.90
2023-09-12T08:19:36.340Z,23.95
2023-09-12T08:22:02.985Z,23.96
2023-09-12T08:24:29.361Z,23.93
2023-09-12T08:26:55.808Z,23.90
2023-09-12T08:29:22.178Z,23.87
2023-09-12T08:31:48.619Z,23.83
2023-09-12T08:34:15.026Z,23.76
2023-09-12T08:36:41.477Z,23.75
2023-09-12T08:39:09.776Z,23.70
2023-09-12T08:41:36.304Z,23.43
2023-09-12T08:44:02.714Z,23.29
2023-09-12T08:46:29.137Z,23.21
2023-09-12T08:48:56.181Z,23.09
2023-09-12T08:51:25.720Z,23.25
2023-09-12T08:53:52.323Z,23.24
2023-09-12T08:56:18.824Z,23.25
2023-09-12T08:58:45.227Z,23.18
2023-09-12T09:01:12.861Z,23.20
2023-09-12T09:03:39.678Z,23.13
2023-09-12T09:06:06.094Z,23.06
2023-09-12T09:08:32.574Z,23.03
2023-09-12T09:10:59.259Z,23.10
2023-09-12T09:13:26.275Z,22.96
2023-09-12T09:16:09.899Z,22.97
2023-09-12T09:18:55.806Z,22.93
2023-09-12T09:21:25.449Z,22.84
2023-09-12T09:23:52.426Z,22.90
2023-09-12T09:26:18.896Z,23.01
2023-09-12T09:28:45.287Z,23.06
2023-09-12T09:31:12.170Z,23.02
2023-09-12T09:33:39.504Z,22.98
2023-09-12T09:36:06.485Z,22.90
2023-09-12T09:38:33.006Z,22.88
2023-09-12T09:40:59.380Z,22.91
2023-09-12T09:43:26.125Z,23.03
2023-09-12T09:45:52.630Z,23.13
2023-09-12T09:48:20.398Z,23.23
2023-09-12T09:50:46.823Z,23.40
2023-09-12T09:53:13.216Z,23.51
2023-09-12T09:55:39.710Z,23.58
2023-09-12T09:58:09.045Z,23.58
2023-09-12T10:00:35.725Z,23.53
2023-09-12T10:03:02.509Z,23.70
2023-09-12T10:05:29.144Z,23.66
2023-09-12T10:07:55.855Z,23.58
2023-09-12T10:10:22.272Z,23.57
2023-09-12T10:12:52.642Z,23.58
2023-09-12T10:15:19.900Z,23.60
2023-09-12T10:17:47.643Z,23.66
2023-09-12T10:20:16.127Z,23.61
2023-09-12T10:22:48.744Z,23.63
2023-09-12T10:25:15.121Z,23.66
2023-09-12T10:27:41.549Z,23.64
2023-09-12T10:30:11.316Z,23.64
2023-09-12T10:32:37.747Z,23.64
2023-09-12T10:35:06.180Z,23.66
2023-09-12T10:37:33.973Z,23.58
2023-09-12T10:40:00.596Z,23.64
2023-09-12T10:42:27.362Z,23.59
2023-09-12T10:44:53.741Z,23.39
2023-09-12T10:47:20.200Z,23.06
2023-09-12T10:49:46.710Z,23.13
2023-09-12T10:52:24.623Z,23.30
2023-09-12T10:54:51.035Z,23.39
2023-09-12T10:57:17.766Z,23.43
2023-09-12T11:00:05.619Z,23.42
2023-09-12T11:02:32.721Z,23.48
2023-09-12T11:04:59.905Z,23.51
2023-09-12T11:07:41.718Z,23.44
2023-09-12T11:10:11.175Z,23.45
2023-09-12T11:12:37.697Z,23.51
2023-09-12T11:15:06.597Z,23.50
2023-09-12T11:17:38.089Z,23.50
2023-09-12T11:20:11.126Z,23.53
2023-09-12T11:22:41.338Z,23.57
2023-09-12T11:25:17.820Z,23.63
2023-09-12T11:27:53.599Z,23.64
2023-09-12T11:30:20.304Z,23.59
2023-09-12T11:32:47.771Z,23.58
2023-09-12T11:35:14.356Z,23.56
2023-09-12T11:37:40.862Z,23.55
2023-09-12T11:40:13.410Z,23.63
2023-09-12T11:42:50.830Z,23.56
2023-09-12T11:45:20.608Z,23.54
2023-09-12T11:47:47.331Z,23.52
2023-09-12T11:50:32.527Z,23.51
2023-09-12T11:52:59.788Z,23.51
2023-09-12T11:55:26.376Z,23.49
2023-09-12T11:57:52.770Z,23.48
2023-09-12T12:00:20.898Z,23.44
2023-09-12T12:02:47.359Z,23.42
2023-09-12T12:05:14.077Z,23.38
2023-09-12T12:07:40.620Z,23.42
2023-09-12T12:10:06.999Z,23.48
2023-09-12T12:12:33.710Z,23.42
2023-09-12T12:15:00.123Z,23.40
2023-09-12T12:17:26.588Z,23.41
2023-09-12T12:19:53.955Z,23.38
2023-09-12T12:22:20.303Z,23.36
2023-09-12T12:24:47.020Z,23.40
2023-09-12T12:27:16.030Z,23.46
2023-09-12T12:29:43.664Z,23.48
2023-09-12T12:32:10.830Z,23.45
2023-09-12T12:35:38.452Z,23.47
2023-09-12T12:37:31.313Z,23.50
2023-09-12T12:39:58.437Z,23.48
2023-09-12T12:42:26.146Z,23.46
2023-09-12T12:44:55.694Z,23.50
2023-09-12T12:47:22.199Z,23.47
2023-09-12T12:52:23.186Z,23.65
2023-09-12T12:54:50.385Z,23.74
2023-09-12T12:57:19.669Z,23.82
2023-09-12T12:59:49.262Z,23.85
2023-09-12T13:02:16.198Z,23.88
2023-09-12T13:04:42.741Z,23.91
2023-09-12T13:07:09.246Z,23.96
2023-09-12T13:09:35.651Z,23.95
2023-09-12T13:12:02.138Z,23.96
2023-09-12T13:14:31.998Z,24.07
2023-09-12T13:16:59.344Z,24.01
2023-09-12T13:19:26.243Z,23.82
2023-09-12T13:21:52.650Z,23.96
2023-09-12T13:24:19.154Z,23.87
2023-09-12T13:26:45.527Z,23.78
2023-09-12T13:29:13.447Z,23.87
2023-09-12T13:31:39.867Z,23.89
2023-09-12T13:34:06.277Z,23.89
2023-09-12T13:36:32.854Z,23.83
2023-09-12T13:38:59.272Z,23.82
2023-09-12T13:41:26.567Z,23.88
2023-09-12T13:43:53.264Z,23.82
2023-09-12T13:46:19.805Z,23.86
2023-09-12T13:48:47.688Z,23.95
2023-09-12T13:51:15.381Z,24.09
2023-09-12T13:53:42.122Z,23.93
2023-09-12T13:56:13.811Z,23.92
2023-09-12T13:58:44.393Z,24.04
2023-09-12T14:01:16.251Z,24.03
2023-09-12T14:03:48.953Z,23.95
2023-09-12T14:06:16.028Z,23.94
2023-09-12T14:08:42.655Z,24.02
2023-09-12T14:11:15.187Z,24.15
2023-09-12T14:14:02.905Z,24.19
2023-09-12T14:16:34.679Z,24.14
2023-09-12T14:19:01.270Z,24.16
2023-09-12T14:21:27.867Z,24.16
2023-09-12T14:23:55.102Z,24.17
2023-09-12T14:26:21.633Z,24.18
2023-09-12T14:28:48.545Z,24.18
2023-09-12T14:31:17.106Z,24.17
2023-09-12T14:33:43.715Z,24.17
2023-09-12T14:36:10.597Z,24.18
2023-09-12T14:38:37.141Z,24.17
2023-09-12T14:41:03.920Z,24.17
2023-09-12T14:43:30.313Z,24.17
2023-09-12T14:45:56.971Z,24.16
2023-09-12T14:48:23.459Z,24.16
2023-09-12T14:50:50.242Z,24.19
2023-09-12T14:53:16.616Z,24.19
2023-09-12T14:55:43.322Z,24.17
2023-09-12T14:58:09.735Z,24.16
2023-09-12T15:00:37.210Z,24.16
2023-09-12T15:03:03.924Z,24.15
2023-09-12T15:05:30.405Z,24.14
2023-09-12T15:07:56.795Z,24.15
2023-09-12T15:10:23.217Z,24.12
2023-09-12T15:12:49.634Z,24.09
2023-09-12T15:15:16.059Z,24.12
2023-09-12T15:17:42.650Z,24.11
2023-09-12T15:20:09.286Z,24.11
2023-09-12T15:22:36.051Z,24.09
2023-09-12T15:25:02.697Z,24.10
2023-09-12T15:27:30.153Z,24.11
2023-09-12T15:29:56.599Z,24.11
2023-09-12T15:32:22.979Z,24.11
2023-09-12T15:34:49.335Z,24.07
2023-09-12T15:37:22.761Z,24.08
2023-09-12T15:39:49.533Z,24.08
2023-09-12T15:42:29.630Z,24.05
2023-09-12T15:45:02.231Z,24.04
2023-09-12T15:47:29.636Z,24.03
2023-09-12T15:49:56.221Z,24.03
2023-09-12T15:52:22.594Z,24.01
2023-09-12T15:54:49.963Z,24.01
2023-09-12T15:57:16.463Z,23.98
2023-09-12T15:59:42.845Z,23.97
2023-09-12T16:02:09.573Z,23.96
2023-09-12T16:04:35.988Z,23.95
2023-09-12T16:07:02.491Z,23.95
2023-09-12T16:09:29.005Z,23.94
2023-09-12T16:11:55.394Z,23.94
2023-09-12T16:14:21.755Z,23.95
2023-09-12T16:16:48.185Z,23.91
2023-09-12T16:19:14.632Z,23.93
2023-09-12T16:21:41.073Z,23.94
2023-09-12T16:24:07.532Z,23.92
2023-09-12T16:26:33.981Z,23.92
2023-09-12T16:29:00.344Z,23.92
2023-09-12T16:31:26.912Z,23.92
2023-09-12T16:33:53.595Z,23.93
2023-09-12T16:36:20.027Z,23.93
2023-09-12T16:38:46.368Z,23.93
2023-09-12T16:41:12.897Z,23.91
2023-09-12T16:43:39.926Z,23.90
2023-09-12T16:46:06.360Z,23.91
2023-09-12T16:48:32.847Z,23.90
2023-09-12T16:50:59.232Z,23.91
2023-09-12T16:53:25.641Z,23.87
2023-09-12T16:55:52.260Z,23.88
2023-09-12T16:58:18.614Z,23.86
2023-09-12T17:00:45.013Z,23.87
2023-09-12T17:03:11.515Z,23.82
2023-09-12T17:05:37.937Z,23.82
2023-09-12T17:08:04.392Z,23.81
2023-09-12T17:10:30.778Z,23.80
2023-09-12T17:12:57.177Z,23.81
2023-09-12T17:15:26.017Z,23.58
2023-09-12T17:17:52.577Z,23.45
2023-09-12T17:20:19.001Z,23.52
2023-09-12T17:22:45.420Z,23.47
2023-09-12T17:25:13.694Z,23.42
2023-09-12T17:27:40.938Z,23.35
2023-09-12T17:30:08.549Z,23.22
2023-09-12T17:32:34.927Z,23.21
2023-09-12T17:35:03.760Z,23.27
2023-09-12T17:37:30.709Z,23.20
2023-09-12T17:39:58.587Z,23.12
2023-09-12T17:42:25.640Z,23.11
2023-09-12T17:44:52.060Z,23.14
2023-09-12T17:47:20.135Z,22.96
2023-09-12T17:49:48.076Z,22.90
2023-09-12T17:52:14.848Z,23.02
2023-09-12T17:54:45.020Z,23.09
2023-09-12T17:57:12.188Z,23.07
2023-09-12T17:59:42.262Z,22.96
2023-09-12T18:02:08.935Z,22.85
2023-09-12T18:04:35.558Z,22.99
2023-09-12T18:07:05.958Z,22.90
2023-09-12T18:09:33.949Z,22.86
2023-09-12T18:12:00.423Z,22.92
2023-09-12T18:14:26.833Z,22.85
2023-09-12T18:16:53.595Z,22.93
2023-09-12T18:19:20.017Z,22.91
2023-09-12T18:21:46.472Z,22.85
2023-09-12T18:24:13.280Z,22.84
2023-09-12T18:26:40.274Z,22.81
2023-09-12T18:29:06.648Z,22.91
2023-09-12T18:31:33.038Z,22.83
2023-09-12T18:33:59.448Z,22.93
2023-09-12T18:36:27.426Z,22.87
2023-09-12T18:38:53.800Z,22.71
2023-09-12T18:41:20.663Z,22.64
2023-09-12T18:43:47.298Z,22.74
2023-09-12T18:46:13.769Z,22.78
2023-09-12T18:48:41.253Z,22.66
2023-09-12T18:51:07.950Z,22.73
2023-09-12T18:53:34.385Z,22.68
2023-09-12T18:56:00.943Z,22.68
2023-09-12T18:58:27.438Z,22.64
2023-09-12T19:00:53.901Z,22.62
2023-09-12T19:03:20.481Z,22.59
2023-09-12T19:05:47.336Z,22.60
2023-09-12T19:08:14.015Z,22.59
2023-09-12T19:10:40.392Z,22.48
2023-09-12T19:13:08.925Z,22.45
2023-09-12T19:15:36.915Z,22.48
2023-09-12T19:18:03.945Z,22.46
2023-09-12T19:20:30.403Z,22.41
2023-09-12T19:22:56.837Z,22.34
2023-09-12T19:25:23.207Z,22.33
2023-09-12T19:27:49.583Z,22.40
2023-09-12T19:30:16.010Z,22.36
2023-09-12T19:32:42.502Z,22.25
2023-09-12T19:35:09.103Z,22.19
2023-09-12T19:37:35.789Z,22.25
2023-09-12T19:40:03.553Z,22.30
2023-09-12T19:42:32.259Z,22.26
2023-09-12T19:44:58.718Z,22.17
2023-09-12T19:47:25.356Z,22.27
2023-09-12T19:49:52.377Z,22.27
2023-09-12T19:52:21.498Z,22.30
2023-09-12T19:54:47.917Z,22.10
2023-09-12T19:57:14.307Z,22.14
2023-09-12T19:59:40.735Z,22.03
2023-09-12T20:02:08.075Z,22.14
2023-09-12T20:04:35.608Z,22.09
2023-09-12T20:07:02.351Z,22.08
2023-09-12T20:09:28.763Z,22.08
2023-09-12T20:11:55.409Z,22.02
2023-09-12T20:14:21.821Z,21.97
2023-09-12T20:16:48.558Z,21.98
2023-09-12T20:19:15.120Z,22.07
2023-09-12T20:21:41.576Z,22.06
2023-09-12T20:24:08.130Z,21.99
2023-09-12T20:26:34.811Z,22.03
2023-09-12T20:29:01.364Z,22.12
2023-09-12T20:31:27.735Z,22.28
2023-09-12T20:33:55.753Z,22.34
2023-09-12T20:36:22.396Z,22.41
2023-09-12T20:38:49.142Z,22.42
2023-09-12T20:41:15.728Z,22.45
2023-09-12T20:43:42.284Z,22.47
2023-09-12T20:46:11.162Z,22.49
2023-09-12T20:48:40.894Z,22.48
2023-09-12T20:51:11.114Z,22.50
2023-09-12T20:53:37.887Z,22.48
2023-09-12T20:56:05.305Z,22.49
2023-09-12T20:58:31.754Z,22.46
2023-09-12T21:00:58.403Z,22.46
2023-09-12T21:03:24.962Z,22.50
2023-09-12T21:05:51.355Z,22.50
2023-09-12T21:08:17.879Z,22.52
2023-09-12T21:10:44.975Z,22.51
2023-09-12T21:13:12.798Z,22.49
2023-09-12T21:15:39.548Z,22.48
2023-09-12T21:18:05.961Z,22.45
2023-09-12T21:20:32.416Z,22.43
2023-09-12T21:22:58.990Z,22.41
2023-09-12T21:25:25.365Z,22.60
2023-09-12T21:27:51.747Z,22.69
2023-09-12T21:30:18.140Z,22.75
2023-09-12T21:32:44.636Z,22.80
2023-09-12T21:35:12.066Z,22.86
2023-09-12T21:37:38.429Z,22.90
2023-09-12T21:40:05.038Z,22.93
2023-09-12T21:42:31.466Z,22.96
2023-09-12T21:44:57.842Z,22.99
2023-09-12T21:47:24.462Z,22.99
2023-09-12T21:49:50.882Z,23.04
2023-09-12T21:52:17.585Z,23.07
2023-09-12T21:54:44.085Z,23.08
2023-09-12T21:57:10.618Z,23.07
2023-09-12T21:59:36.986Z,23.07
2023-09-12T22:02:03.545Z,23.05
2023-09-12T22:04:30.062Z,23.05
2023-09-12T22:06:56.482Z,22.99
2023-09-12T22:09:25.974Z,23.05
2023-09-12T22:11:52.964Z,23.07
2023-09-12T22:14:19.360Z,23.08
2023-09-12T22:16:45.893Z,23.10
2023-09-12T22:19:12.318Z,23.10
2023-09-12T22:21:38.808Z,23.11
2023-09-12T22:24:05.407Z,23.12
2023-09-12T22:26:32.323Z,23.12
2023-09-12T22:28:58.679Z,23.12
2023-09-12T22:31:25.156Z,23.14
2023-09-12T22:33:51.702Z,23.16
2023-09-12T22:36:20.530Z,23.14
2023-09-12T22:38:47.212Z,23.20
2023-09-12T22:41:13.671Z,23.19
2023-09-12T22:43:40.028Z,23.17
2023-09-12T22:46:06.434Z,23.17
2023-09-12T22:48:32.888Z,23.17
2023-09-12T22:50:59.366Z,23.15
2023-09-12T22:53:25.734Z,23.16
2023-09-12T22:55:52.149Z,23.15
2023-09-12T22:58:18.641Z,23.17
2023-09-12T23:00:45.206Z,23.16
2023-09-12T23:03:12.197Z,23.17
2023-09-12T23:05:39.046Z,23.16
2023-09-12T23:08:05.538Z,23.13
2023-09-12T23:10:31.911Z,23.13
2023-09-12T23:12:58.779Z,23.13
2023-09-12T23:15:25.228Z,23.14
2023-09-12T23:17:51.908Z,23.15
2023-09-12T23:20:18.298Z,23.15
2023-09-12T23:22:50.508Z,23.15
2023-09-12T23:25:17.108Z,23.14
2023-09-12T23:27:43.724Z,23.14
2023-09-12T23:30:10.340Z,23.16
2023-09-12T23:32:37.206Z,23.17
2023-09-12T23:35:03.830Z,23.15
2023-09-12T23:37:31.714Z,23.17
2023-09-12T23:39:58.327Z,23.17
2023-09-12T23:42:24.788Z,23.18
2023-09-12T23:44:51.234Z,23.17
2023-09-12T23:47:17.700Z,23.18
2023-09-12T23:49:44.104Z,23.18
2023-09-12T23:52:10.867Z,23.19
2023-09-12T23:54:38.507Z,23.19
2023-09-12T23:57:05.184Z,23.19
2023-09-12T23:59:31.621Z,23.20
